Time;durP1;ratioP1;P1;durP2;ratioP2;P2;SDS_P1;SDS_P2;PMS_P1;PMS_P2;Temp;Humidity;BMP_temperature;BMP_pressure;BME280_temperature;BME280_humidity;BME280_pressure;Samples;Min_cycle;Max_cycle;Signal;HPM_P1;HPM_P2
2024/01/11 00:00:48;;;;;;;22.40;11.45;;;;;;;-3.42;78.26;93341.09;2047942;70;20196;-78
2024/01/11 00:03:15;;;;;;;19.25;10.20;;;;;;;-3.41;77.36;93337.09;2048018;70;20788;-78
2024/01/11 00:05:41;;;;;;;20.60;10.70;;;;;;;-3.39;77.25;93339.31;2050240;70;20146;-78
2024/01/11 00:08:07;;;;;;;20.98;10.55;;;;;;;-3.32;77.22;93331.31;2048033;70;20499;-78
2024/01/11 00:10:33;;;;;;;16.25;8.30;;;;;;;-3.27;77.05;93324.28;2047439;70;20598;-79
2024/01/11 00:12:58;;;;;;;14.13;6.50;;;;;;;-3.27;77.00;93335.28;2047890;70;20151;-78
2024/01/11 00:15:25;;;;;;;11.45;5.93;;;;;;;-3.23;76.93;93326.78;2048184;70;20598;-78
2024/01/11 00:17:51;;;;;;;13.13;7.10;;;;;;;-3.25;77.17;93334.78;2047304;70;20182;-78
2024/01/11 00:20:17;;;;;;;17.65;7.20;;;;;;;-3.21;76.75;93344.28;2047847;70;20151;-78
2024/01/11 00:22:42;;;;;;;13.35;6.20;;;;;;;-3.21;76.32;93332.50;2047748;70;20507;-80
2024/01/11 00:25:08;;;;;;;12.30;6.03;;;;;;;-3.23;76.71;93338.53;2047603;70;20151;-79
2024/01/11 00:27:39;;;;;;;11.48;5.38;;;;;;;-3.17;75.91;93338.50;2047006;70;20174;-79
2024/01/11 00:30:08;;;;;;;11.68;5.88;;;;;;;-3.19;76.51;93333.53;2047487;70;20143;-77
2024/01/11 00:32:34;;;;;;;11.00;5.60;;;;;;;-3.20;75.84;93331.28;2047603;70;20147;-79
2024/01/11 00:35:00;;;;;;;11.30;6.25;;;;;;;-3.44;76.79;93323.56;2047898;70;20139;-79
2024/01/11 00:37:25;;;;;;;10.77;5.90;;;;;;;-3.29;76.99;93331.56;2047992;70;20599;-78
2024/01/11 00:39:52;;;;;;;13.45;6.78;;;;;;;-3.40;76.38;93335.84;2048060;70;20232;-80
2024/01/11 00:42:17;;;;;;;13.73;6.65;;;;;;;-3.25;76.13;93334.78;2047735;70;20190;-80
2024/01/11 00:44:44;;;;;;;10.63;5.63;;;;;;;-3.28;76.33;93333.06;2047321;70;20139;-79
2024/01/11 00:47:10;;;;;;;11.07;5.63;;;;;;;-3.49;77.57;93330.59;2047894;70;20158;-78
2024/01/11 00:49:36;;;;;;;11.70;5.80;;;;;;;-3.31;76.74;93326.53;2048134;70;20150;-79
2024/01/11 00:52:02;;;;;;;11.05;5.40;;;;;;;-3.47;77.77;93333.63;2047777;70;20182;-78
2024/01/11 00:54:28;;;;;;;6.40;3.88;;;;;;;-3.30;78.34;93330.78;2048185;70;20222;-77
2024/01/11 00:56:53;;;;;;;11.20;5.65;;;;;;;-3.40;77.82;93327.56;2047771;70;20209;-78
2024/01/11 00:59:19;;;;;;;11.77;5.43;;;;;;;-3.40;78.34;93333.06;2047672;70;20150;-78
2024/01/11 01:01:50;;;;;;;12.65;5.57;;;;;;;-3.42;77.00;93327.34;2048414;70;20142;-79
2024/01/11 01:04:16;;;;;;;9.98;5.40;;;;;;;-3.41;76.77;93323.31;2048576;70;20202;-78
2024/01/11 01:06:42;;;;;;;9.45;5.28;;;;;;;-3.34;76.29;93333.81;2048445;70;20151;-79
2024/01/11 01:09:08;;;;;;;13.07;6.22;;;;;;;-3.32;76.41;93339.56;2048242;70;20143;-77
2024/01/11 01:11:34;;;;;;;9.00;5.20;;;;;;;-3.33;76.60;93340.81;2048409;70;20162;-77
2024/01/11 01:13:59;;;;;;;10.23;5.05;;;;;;;-3.33;76.28;93342.84;2048444;70;20146;-78
2024/01/11 01:16:26;;;;;;;8.90;4.55;;;;;;;-3.30;76.53;93346.56;2045211;70;20147;-77
2024/01/11 01:18:51;;;;;;;8.65;5.20;;;;;;;-3.34;76.33;93346.84;2048716;70;20168;-77
2024/01/11 01:21:17;;;;;;;9.40;4.95;;;;;;;-3.34;76.84;93344.09;2048340;70;20150;-76
2024/01/11 01:23:42;;;;;;;8.52;4.80;;;;;;;-3.26;76.23;93339.53;2048447;70;20214;-77
2024/01/11 01:26:08;;;;;;;9.88;4.80;;;;;;;-3.32;76.34;93338.81;2048151;70;20153;-77
2024/01/11 01:28:34;;;;;;;10.50;4.45;;;;;;;-3.27;76.41;93340.81;2048356;70;20173;-77
2024/01/11 01:31:00;;;;;;;7.38;4.00;;;;;;;-3.32;76.78;93344.31;2047910;70;20147;-77
2024/01/11 01:33:25;;;;;;;7.35;4.28;;;;;;;-3.45;76.73;93344.09;2050334;70;20127;-78
2024/01/11 01:35:51;;;;;;;6.90;4.13;;;;;;;-3.50;76.40;93340.13;2048534;70;20161;-77
2024/01/11 01:38:17;;;;;;;8.65;4.80;;;;;;;-3.40;76.52;93346.09;2048286;70;20146;-78
2024/01/11 01:40:43;;;;;;;7.03;3.63;;;;;;;-3.40;76.52;93346.84;2048127;70;20611;-78
2024/01/11 01:43:09;;;;;;;6.75;3.95;;;;;;;-3.50;77.55;93345.63;2048316;70;20585;-78
2024/01/11 01:45:35;;;;;;;7.13;4.35;;;;;;;-3.36;77.03;93350.09;2050639;70;20149;-78
2024/01/11 01:48:02;;;;;;;8.95;4.90;;;;;;;-3.40;77.03;93343.34;2048373;70;20174;-78
2024/01/11 01:50:28;;;;;;;7.18;4.00;;;;;;;-3.33;76.60;93353.84;2048425;70;20147;-78
2024/01/11 01:52:55;;;;;;;6.75;4.30;;;;;;;-3.34;76.58;93349.59;2048558;70;20629;-78
2024/01/11 01:55:22;;;;;;;6.57;4.32;;;;;;;-3.40;76.92;93354.34;2048429;70;20631;-78
2024/01/11 01:57:50;;;;;;;6.40;4.25;;;;;;;-3.38;76.37;93354.63;2048207;70;20167;-78
2024/01/11 02:00:17;;;;;;;9.88;4.05;;;;;;;-3.52;76.32;93350.91;2048464;70;20177;-78
2024/01/11 02:02:49;;;;;;;5.75;3.90;;;;;;;-3.40;76.93;93346.84;2047928;70;20151;-78
2024/01/11 02:05:17;;;;;;;6.78;3.70;;;;;;;-3.42;76.89;93345.88;2048418;69;20173;-78
2024/01/11 02:07:44;;;;;;;5.05;3.08;;;;;;;-3.42;76.72;93351.38;2048455;70;20162;-78
2024/01/11 02:10:09;;;;;;;6.63;3.35;;;;;;;-3.56;78.14;93352.41;2048139;70;20690;-78
2024/01/11 02:12:37;;;;;;;6.88;3.70;;;;;;;-3.54;77.96;93358.16;2048306;70;20230;-77
2024/01/11 02:15:03;;;;;;;5.65;3.78;;;;;;;-3.52;77.49;93361.16;2048458;70;20234;-78
2024/01/11 02:17:30;;;;;;;5.38;3.03;;;;;;;-3.41;79.20;93355.63;2048354;70;20213;-78
2024/01/11 02:19:56;;;;;;;5.03;3.05;;;;;;;-3.29;78.65;93356.34;2048322;70;20158;-78
2024/01/11 02:22:31;;;;;;;4.20;2.20;;;;;;;-3.23;79.44;93357.06;2047828;70;20627;-78
2024/01/11 02:24:58;;;;;;;6.28;3.05;;;;;;;-3.23;78.33;93357.81;2048535;70;20214;-78
2024/01/11 02:27:25;;;;;;;5.28;2.90;;;;;;;-3.18;78.81;93359.78;2047762;70;20147;-78
2024/01/11 02:29:51;;;;;;;5.85;3.38;;;;;;;-3.12;78.07;93368.03;2048338;70;20622;-78
2024/01/11 02:32:17;;;;;;;5.68;2.97;;;;;;;-3.46;79.02;93364.63;2048326;70;20529;-78
2024/01/11 02:34:43;;;;;;;6.20;3.45;;;;;;;-3.37;78.11;93367.88;2048358;70;20188;-78
2024/01/11 02:37:09;;;;;;;6.35;3.30;;;;;;;-3.27;77.89;93360.06;2047847;70;20135;-79
2024/01/11 02:39:35;;;;;;;6.07;3.00;;;;;;;-3.22;77.97;93367.56;2048355;70;20153;-80
2024/01/11 02:42:01;;;;;;;6.65;3.70;;;;;;;-3.44;78.03;93357.34;2048200;70;20182;-79
2024/01/11 02:44:27;;;;;;;6.50;3.20;;;;;;;-3.23;78.39;93354.31;2048354;70;20202;-79
2024/01/11 02:46:54;;;;;;;8.27;3.30;;;;;;;-3.18;77.56;93359.06;2048319;70;20242;-79
2024/01/11 02:49:19;;;;;;;4.93;3.10;;;;;;;-3.30;77.26;93360.34;2048267;70;20147;-79
2024/01/11 02:51:45;;;;;;;4.00;2.70;;;;;;;-3.31;78.53;93348.56;2048538;70;20148;-77
2024/01/11 02:54:11;;;;;;;3.95;2.42;;;;;;;-3.17;78.31;93352.28;2047775;70;20165;-78
2024/01/11 02:56:36;;;;;;;2.80;2.10;;;;;;;-3.18;80.10;93353.53;2048084;70;20230;-79
2024/01/11 02:59:02;;;;;;;3.05;2.05;;;;;;;-3.06;79.15;93344.00;2048273;70;20162;-79
2024/01/11 03:01:28;;;;;;;3.25;1.92;;;;;;;-3.20;79.67;93354.06;2047965;70;20143;-78
2024/01/11 03:03:54;;;;;;;3.85;2.35;;;;;;;-3.27;80.44;93345.56;2048195;70;20155;-78
2024/01/11 03:06:22;;;;;;;3.85;2.45;;;;;;;-3.15;79.10;93345.03;2048203;70;20167;-78
2024/01/11 03:08:50;;;;;;;4.88;2.20;;;;;;;-3.11;79.51;93347.53;2048313;70;20221;-79
2024/01/11 03:11:16;;;;;;;4.00;2.50;;;;;;;-3.19;79.50;93344.53;2047731;70;20658;-77
2024/01/11 03:13:43;;;;;;;3.80;2.40;;;;;;;-3.05;78.69;93336.47;2048478;70;20226;-78
2024/01/11 03:16:08;;;;;;;4.13;2.03;;;;;;;-3.15;79.29;93334.00;2048258;70;20142;-78
2024/01/11 03:18:34;;;;;;;4.32;2.33;;;;;;;-3.16;79.73;93342.75;2048320;70;20150;-78
2024/01/11 03:20:59;;;;;;;3.88;2.15;;;;;;;-3.03;79.97;93333.94;2048158;70;20511;-78
2024/01/11 03:23:25;;;;;;;3.83;2.45;;;;;;;-3.10;78.97;93341.50;2048215;70;20170;-78
2024/01/11 03:25:51;;;;;;;5.30;2.50;;;;;;;-2.95;78.17;93341.19;2048275;70;20261;-78
2024/01/11 03:28:16;;;;;;;3.97;2.67;;;;;;;-2.92;77.52;93337.41;2048025;70;20578;-78
2024/01/11 03:30:43;;;;;;;5.22;2.42;;;;;;;-3.18;78.35;93331.50;2048256;70;20209;-79
2024/01/11 03:33:09;;;;;;;4.28;2.33;;;;;;;-3.00;78.00;93338.44;2048188;70;20131;-78
2024/01/11 03:35:34;;;;;;;4.28;2.40;;;;;;;-2.98;77.48;93336.69;2048151;70;20143;-78
2024/01/11 03:38:04;;;;;;;5.22;2.42;;;;;;;-3.03;77.42;93331.94;2048167;70;20165;-79
2024/01/11 03:40:29;;;;;;;4.28;2.38;;;;;;;-3.11;77.69;93331.00;2048273;70;20238;-79
2024/01/11 03:42:55;;;;;;;3.63;2.42;;;;;;;-3.14;78.42;93327.25;2048101;70;20162;-79
2024/01/11 03:45:21;;;;;;;3.53;2.35;;;;;;;-3.01;78.07;93323.19;2047622;70;20159;-79
2024/01/11 03:47:47;;;;;;;3.15;1.95;;;;;;;-3.12;77.97;93310.19;2048156;70;20193;-79
2024/01/11 03:50:14;;;;;;;3.70;2.30;;;;;;;-3.05;77.45;93326.19;2047507;70;20149;-78
2024/01/11 03:52:46;;;;;;;5.28;2.60;;;;;;;-3.10;77.93;93330.47;2048146;70;20143;-79
2024/01/11 03:55:12;;;;;;;4.97;2.65;;;;;;;-3.21;78.36;93327.00;2047640;70;20302;-79
2024/01/11 03:57:38;;;;;;;4.70;2.30;;;;;;;-3.09;77.57;93325.72;2047405;70;20582;-79
2024/01/11 04:00:07;;;;;;;5.10;2.80;;;;;;;-3.21;77.57;93324.25;2047617;70;20185;-78
2024/01/11 04:02:58;;;;;;;;;;;;;;;;;;;;;
2024/01/11 04:05:24;;;;;;;5.20;3.10;;;;;;;-3.25;77.20;93323.75;2048159;70;20217;-79
2024/01/11 04:07:50;;;;;;;5.38;3.45;;;;;;;-3.35;76.91;93315.78;2048179;70;20155;-78
2024/01/11 04:10:17;;;;;;;7.32;3.92;;;;;;;-3.27;76.46;93326.28;2048050;70;20595;-78
2024/01/11 04:12:43;;;;;;;6.50;2.92;;;;;;;-3.28;76.20;93322.78;2047986;70;20607;-78
2024/01/11 04:15:11;;;;;;;5.32;3.10;;;;;;;-3.36;76.68;93325.31;2048185;70;20149;-77
2024/01/11 04:17:38;;;;;;;6.22;3.10;;;;;;;-3.37;76.46;93318.31;2048244;70;20602;-79
2024/01/11 04:20:08;;;;;;;5.22;2.97;;;;;;;-3.32;76.59;93330.56;2048157;70;20294;-78
2024/01/11 04:22:35;;;;;;;4.72;3.00;;;;;;;-3.34;76.94;93328.31;2047644;70;20609;-78
2024/01/11 04:25:01;;;;;;;5.50;3.10;;;;;;;-3.30;76.91;93330.03;2048030;70;20164;-78
2024/01/11 04:27:26;;;;;;;4.68;2.80;;;;;;;-3.37;76.80;93325.81;2048034;70;20154;-78
2024/01/11 04:29:52;;;;;;;4.45;2.97;;;;;;;-3.36;76.56;93319.81;2048155;70;20185;-78
2024/01/11 04:32:17;;;;;;;4.50;2.72;;;;;;;-3.29;76.32;93323.31;2047950;70;20523;-77
2024/01/11 04:34:44;;;;;;;7.20;3.85;;;;;;;-3.46;76.64;93321.34;2047620;70;20139;-77
2024/01/11 04:37:10;;;;;;;9.68;3.88;;;;;;;-3.40;77.20;93324.81;2048377;70;20161;-77
2024/01/11 04:39:35;;;;;;;8.02;3.28;;;;;;;-3.41;76.25;93325.34;2047525;70;20302;-76
2024/01/11 04:42:02;;;;;;;6.40;3.45;;;;;;;-3.56;76.73;93324.88;2048076;70;20161;-77
2024/01/11 04:44:27;;;;;;;5.53;3.20;;;;;;;-3.51;76.86;93329.63;2048885;70;20149;-78
2024/01/11 04:46:53;;;;;;;6.30;3.30;;;;;;;-3.54;76.42;93328.63;2051479;70;20358;-79
2024/01/11 04:49:19;;;;;;;7.30;3.55;;;;;;;-3.60;76.65;93319.63;2052307;70;20238;-77
2024/01/11 04:51:45;;;;;;;6.60;3.83;;;;;;;-3.61;76.78;93329.16;2050187;70;20264;-78
2024/01/11 04:54:10;;;;;;;9.52;3.85;;;;;;;-3.73;75.99;93333.91;2048515;70;20154;-79
2024/01/11 04:56:36;;;;;;;9.32;4.72;;;;;;;-3.87;77.49;93324.69;2048396;70;20139;-78
2024/01/11 04:59:01;;;;;;;17.30;7.43;;;;;;;-3.68;77.23;93319.38;2050651;70;20598;-78
2024/01/11 05:01:27;;;;;;;15.90;8.90;;;;;;;-3.63;76.92;93326.88;2051068;70;20138;-78
2024/01/11 05:03:53;;;;;;;12.68;8.27;;;;;;;-3.63;77.36;93332.38;2051299;70;20148;-78
2024/01/11 05:06:21;;;;;;;11.60;5.90;;;;;;;-3.62;77.38;93331.16;2048451;70;20147;-78
2024/01/11 05:08:49;;;;;;;10.07;6.40;;;;;;;-3.73;77.22;93339.41;2044825;70;20233;-79
2024/01/11 05:11:24;;;;;;;15.50;8.55;;;;;;;-3.76;76.77;93331.41;2048067;70;20170;-79
2024/01/11 05:13:51;;;;;;;11.50;6.38;;;;;;;-3.68;76.57;93326.91;2048310;70;20143;-79
2024/01/11 05:16:24;;;;;;;14.43;6.40;;;;;;;-3.69;76.76;93326.16;2048416;70;20146;-77
2024/01/11 05:18:53;;;;;;;12.45;5.25;;;;;;;-3.69;76.24;93317.91;2048310;70;20135;-78
2024/01/11 05:21:19;;;;;;;17.67;7.50;;;;;;;-3.78;76.74;93326.41;2048272;70;20522;-78
2024/01/11 05:23:45;;;;;;;20.98;8.65;;;;;;;-3.78;76.46;93311.91;2048154;70;20174;-78
2024/01/11 05:26:13;;;;;;;22.88;8.70;;;;;;;-3.80;76.01;93326.19;2050145;70;20138;-79
2024/01/11 05:28:39;;;;;;;32.80;11.23;;;;;;;-3.79;76.32;93324.19;2047940;70;20241;-78
2024/01/11 05:31:10;;;;;;;48.33;16.80;;;;;;;-3.81;76.67;93327.41;2047606;70;20222;-78
2024/01/11 05:33:37;;;;;;;23.20;9.32;;;;;;;-3.98;76.54;93321.19;2044878;70;20230;-79
2024/01/11 05:36:03;;;;;;;25.60;11.30;;;;;;;-3.86;77.09;93317.16;2047970;70;20586;-79
2024/01/11 05:38:29;;;;;;;19.98;9.77;;;;;;;-3.84;77.34;93309.91;2047937;70;20165;-78
2024/01/11 05:40:54;;;;;;;22.63;10.80;;;;;;;-3.96;77.48;93307.69;2048073;70;20135;-78
2024/01/11 05:43:20;;;;;;;24.95;11.75;;;;;;;-4.08;78.32;93315.19;2047741;70;20693;-79
2024/01/11 05:45:45;;;;;;;24.70;11.80;;;;;;;-3.94;78.23;93316.94;2048324;70;20139;-78
2024/01/11 05:48:11;;;;;;;26.98;12.30;;;;;;;-3.98;77.99;93313.69;2048389;70;20634;-79
2024/01/11 05:50:37;;;;;;;20.88;9.70;;;;;;;-3.89;77.64;93307.19;2048344;70;20170;-78
2024/01/11 05:53:03;;;;;;;22.38;11.60;;;;;;;-3.92;77.42;93313.69;2048348;70;20150;-78
2024/01/11 05:55:28;;;;;;;20.77;10.10;;;;;;;-3.91;76.82;93315.19;2047844;70;20150;-77
2024/01/11 05:57:54;;;;;;;17.42;8.75;;;;;;;-4.20;77.40;93316.47;2044804;70;20261;-78
2024/01/11 06:00:20;;;;;;;16.00;8.02;;;;;;;-4.06;77.29;93317.44;2048324;70;20599;-79
2024/01/11 06:02:47;;;;;;;16.70;7.75;;;;;;;-4.01;76.97;93322.19;2048389;70;20127;-78
2024/01/11 06:05:12;;;;;;;13.98;7.25;;;;;;;-4.18;77.91;93322.94;2047795;70;20162;-79
2024/01/11 06:07:38;;;;;;;15.18;7.93;;;;;;;-4.02;77.73;93310.44;2048374;70;20214;-79
2024/01/11 06:10:05;;;;;;;13.13;6.82;;;;;;;-4.05;77.83;93316.94;2048284;70;20146;-79
2024/01/11 06:12:32;;;;;;;10.48;5.50;;;;;;;-4.06;78.28;93322.94;2048269;70;20154;-79
2024/01/11 06:14:57;;;;;;;14.52;5.93;;;;;;;-3.94;77.50;93321.69;2048426;70;20154;-79
2024/01/11 06:17:23;;;;;;;12.52;6.00;;;;;;;-3.98;77.26;93326.72;2048290;70;20135;-78
2024/01/11 06:19:49;;;;;;;9.23;4.65;;;;;;;-3.95;76.85;93317.44;2048350;70;20159;-78
2024/01/11 06:22:15;;;;;;;9.27;4.20;;;;;;;-3.86;76.49;93312.41;2048286;70;20526;-79
2024/01/11 06:24:41;;;;;;;11.98;5.20;;;;;;;-3.89;76.80;93307.19;2048327;70;20530;-78
2024/01/11 06:27:07;;;;;;;83.03;21.73;;;;;;;-4.01;77.05;93306.44;2048149;70;20201;-78
2024/01/11 06:29:36;;;;;;;280.08;77.32;;;;;;;-3.95;76.88;93309.19;2048252;70;20147;-77
2024/01/11 06:32:02;;;;;;;232.27;66.65;;;;;;;-3.86;76.46;93314.41;2048120;70;20166;-77
2024/01/11 06:34:28;;;;;;;161.88;48.08;;;;;;;-3.98;77.01;93318.44;2046386;70;20681;-78
2024/01/11 06:36:56;;;;;;;128.27;39.97;;;;;;;-3.95;77.75;93325.69;2045798;70;20134;-78
2024/01/11 06:39:22;;;;;;;87.15;28.48;;;;;;;-3.93;77.12;93323.19;2046432;70;20158;-77
2024/01/11 06:41:51;;;;;;;85.32;25.15;;;;;;;-3.95;76.33;93342.19;2046364;70;20154;-78
2024/01/11 06:44:17;;;;;;;61.60;20.15;;;;;;;-3.90;76.20;93346.94;2044884;70;20159;-78
2024/01/11 06:46:43;;;;;;;52.78;17.33;;;;;;;-4.26;76.48;93349.47;2046573;70;20233;-78
2024/01/11 06:49:09;;;;;;;41.03;16.83;;;;;;;-4.25;77.11;93347.47;2044610;70;20143;-78
2024/01/11 06:51:35;;;;;;;55.50;20.30;;;;;;;-4.14;77.00;93352.94;2043465;70;20151;-77
2024/01/11 06:54:01;;;;;;;62.45;22.48;;;;;;;-4.06;76.96;93353.94;2046819;70;20226;-78
2024/01/11 06:56:27;;;;;;;45.30;17.55;;;;;;;-4.26;76.41;93348.69;2047141;70;20681;-78
2024/01/11 06:58:54;;;;;;;43.03;17.58;;;;;;;-4.27;76.89;93358.94;2047581;70;20633;-77
2024/01/11 07:01:23;;;;;;;40.88;17.27;;;;;;;-4.10;77.12;93364.44;2045084;70;20804;-77
2024/01/11 07:03:49;;;;;;;42.60;17.02;;;;;;;-4.09;76.74;93363.19;2045969;70;20139;-77
2024/01/11 07:06:18;;;;;;;39.15;16.48;;;;;;;-4.13;76.37;93357.19;2047318;70;20225;-78
2024/01/11 07:08:45;;;;;;;39.35;15.80;;;;;;;-4.09;76.10;93363.94;2048607;70;20143;-79
2024/01/11 07:11:11;;;;;;;35.92;15.85;;;;;;;-4.14;75.81;93364.69;2046400;70;20245;-78
2024/01/11 07:13:38;;;;;;;37.95;14.95;;;;;;;-4.09;76.49;93363.94;2045683;70;20147;-79
2024/01/11 07:16:05;;;;;;;32.58;13.07;;;;;;;-4.04;76.16;93356.94;2046379;70;20644;-77
2024/01/11 07:18:31;;;;;;;27.33;12.32;;;;;;;-4.06;76.07;93353.22;2046418;70;20143;-78
2024/01/11 07:20:58;;;;;;;40.13;15.98;;;;;;;-4.24;76.42;93348.94;2046622;70;20503;-78
2024/01/11 07:23:24;;;;;;;46.38;16.95;;;;;;;-4.06;76.58;93364.97;2045807;70;20222;-78
2024/01/11 07:25:50;;;;;;;45.80;18.10;;;;;;;-4.01;76.59;93360.69;2048430;70;20182;-79
2024/01/11 07:28:17;;;;;;;64.40;21.95;;;;;;;-4.06;76.32;93355.97;2046374;70;20533;-78
2024/01/11 07:30:42;;;;;;;49.00;19.05;;;;;;;-4.29;76.84;93353.19;2046537;70;20208;-77
2024/01/11 07:33:09;;;;;;;46.10;19.52;;;;;;;-4.18;76.84;93349.69;2046662;70;20534;-77
2024/01/11 07:35:35;;;;;;;43.65;17.83;;;;;;;-4.21;77.40;93356.97;2046478;70;20159;-78
2024/01/11 07:38:01;;;;;;;21.83;9.20;;;;;;;-4.15;78.45;93351.44;2045900;70;20625;-78
2024/01/11 07:40:28;;;;;;;36.40;15.68;;;;;;;-4.19;78.17;93353.69;2045687;70;20283;-77
2024/01/11 07:42:54;;;;;;;13.02;6.10;;;;;;;-3.89;78.50;93360.19;2046230;70;20320;-76
2024/01/11 07:45:20;;;;;;;19.95;9.38;;;;;;;-3.74;77.16;93367.44;2046543;70;20254;-76
2024/01/11 07:47:46;;;;;;;19.77;9.10;;;;;;;-3.75;77.07;93368.69;2046562;70;20175;-77
2024/01/11 07:50:14;;;;;;;29.90;13.43;;;;;;;-3.80;77.51;93366.69;2046463;70;20194;-76
2024/01/11 07:52:43;;;;;;;27.17;12.50;;;;;;;-3.70;76.81;93360.44;2047167;70;20189;-76
2024/01/11 07:55:11;;;;;;;17.35;8.25;;;;;;;-3.78;78.15;93364.94;2047173;70;20213;-75
2024/01/11 07:57:37;;;;;;;13.02;5.97;;;;;;;-3.67;78.10;93364.16;2046084;70;20628;-76
2024/01/11 08:00:08;;;;;;;12.05;5.30;;;;;;;-3.57;78.55;93359.91;2046956;70;20158;-76
2024/01/11 08:02:40;;;;;;;7.82;4.13;;;;;;;-3.59;78.97;93365.91;2044943;70;20690;-76
2024/01/11 08:05:06;;;;;;;12.57;5.88;;;;;;;-3.50;78.44;93364.16;2045795;70;20158;-76
2024/01/11 08:07:31;;;;;;;22.95;9.63;;;;;;;-3.52;78.02;93361.16;2048134;70;20146;-77
2024/01/11 08:09:58;;;;;;;19.17;9.10;;;;;;;-3.34;76.82;93369.63;2048779;70;20150;-77
2024/01/11 08:12:24;;;;;;;18.65;8.63;;;;;;;-3.30;76.64;93368.59;2049622;70;20213;-76
2024/01/11 08:14:50;;;;;;;22.42;11.52;;;;;;;-3.50;76.58;93383.41;2049846;70;20155;-77
2024/01/11 08:17:15;;;;;;;30.80;13.00;;;;;;;-3.46;76.97;93384.66;2050429;70;20186;-77
2024/01/11 08:19:44;;;;;;;25.35;13.43;;;;;;;-3.37;76.44;93391.91;2047839;70;20139;-77
2024/01/11 08:22:10;;;;;;;29.10;14.55;;;;;;;-3.39;76.38;93375.13;2048089;70;20139;-77
2024/01/11 08:24:36;;;;;;;28.55;13.38;;;;;;;-3.44;76.25;93386.91;2048123;70;20153;-77
2024/01/11 08:27:01;;;;;;;29.98;13.63;;;;;;;-3.39;76.32;93392.41;2048197;70;20261;-76
2024/01/11 08:29:27;;;;;;;29.95;14.00;;;;;;;-3.47;76.45;93396.94;2048017;70;20166;-77
2024/01/11 08:31:54;;;;;;;29.98;13.48;;;;;;;-3.41;76.01;93389.41;2048110;70;20162;-79
2024/01/11 08:34:22;;;;;;;29.45;13.00;;;;;;;-3.37;75.95;93391.91;2047222;70;20160;-77
2024/01/11 08:36:49;;;;;;;26.35;12.82;;;;;;;-3.35;76.21;93389.38;2047121;70;20162;-80
2024/01/11 08:39:15;;;;;;;25.67;12.90;;;;;;;-3.29;76.15;93392.88;2047194;70;20147;-79
2024/01/11 08:41:41;;;;;;;33.10;15.07;;;;;;;-3.37;76.17;93391.91;2047053;70;20161;-78
2024/01/11 08:44:07;;;;;;;30.00;14.88;;;;;;;-3.44;75.76;93389.66;2047130;70;20213;-79
2024/01/11 08:46:33;;;;;;;28.33;15.10;;;;;;;-3.20;76.05;93387.09;2047210;70;20189;-77
2024/01/11 08:49:03;;;;;;;27.83;13.75;;;;;;;-2.74;75.82;93377.41;2047622;70;20226;-76
2024/01/11 08:51:29;;;;;;;32.55;14.77;;;;;;;-2.30;76.48;93381.19;2048033;70;20148;-78
2024/01/11 08:53:55;;;;;;;33.63;17.67;;;;;;;-1.99;77.80;93379.97;2047901;70;20592;-77
2024/01/11 08:56:24;;;;;;;35.35;17.67;;;;;;;-1.76;76.57;93386.06;2047339;70;20590;-76
2024/01/11 08:58:49;;;;;;;42.40;21.90;;;;;;;-1.44;77.88;93382.78;2047972;70;20150;-78
2024/01/11 09:01:15;;;;;;;47.50;22.83;;;;;;;-1.09;76.95;93388.22;2048119;70;20135;-78
2024/01/11 09:03:41;;;;;;;39.47;20.50;;;;;;;-0.99;75.53;93382.34;2047927;70;20242;-77
2024/01/11 09:06:07;;;;;;;43.83;21.60;;;;;;;-0.65;75.75;93371.63;2047472;70;20552;-78
2024/01/11 09:08:33;;;;;;;39.80;21.35;;;;;;;-0.41;74.60;93371.56;2048079;70;20246;-78
2024/01/11 09:10:59;;;;;;;37.15;18.92;;;;;;;-0.22;73.49;93359.75;2047499;70;20518;-79
2024/01/11 09:13:27;;;;;;;32.03;18.02;;;;;;;0.10;73.25;93371.59;2047834;70;20234;-77
2024/01/11 09:15:53;;;;;;;27.40;14.98;;;;;;;0.20;73.18;93375.47;2048212;70;20245;-78
2024/01/11 09:18:19;;;;;;;28.77;14.77;;;;;;;0.37;72.39;93383.53;2047986;70;20257;-78
2024/01/11 09:20:45;;;;;;;28.02;14.02;;;;;;;0.55;72.28;93381.19;2048470;70;20683;-78
2024/01/11 09:23:11;;;;;;;27.55;13.93;;;;;;;0.60;71.03;93394.25;2048430;70;20147;-78
2024/01/11 09:25:37;;;;;;;27.58;13.65;;;;;;;0.56;69.60;93397.31;2048436;70;20610;-77
2024/01/11 09:28:03;;;;;;;29.08;13.93;;;;;;;1.00;69.44;93395.03;2048342;70;20165;-78
2024/01/11 09:30:31;;;;;;;27.90;15.05;;;;;;;1.45;69.45;93391.41;2048319;70;20234;-77
2024/01/11 09:32:57;;;;;;;30.08;15.93;;;;;;;0.97;69.21;93390.56;2048456;70;20302;-78
2024/01/11 09:35:23;;;;;;;30.90;15.85;;;;;;;0.94;68.66;93394.41;2047996;70;20250;-79
2024/01/11 09:37:51;;;;;;;29.70;15.07;;;;;;;1.24;67.53;93386.53;2048423;70;20155;-77
2024/01/11 09:40:18;;;;;;;22.27;12.13;;;;;;;1.59;67.38;93386.59;2048468;70;20238;-79
2024/01/11 09:42:44;;;;;;;21.75;11.73;;;;;;;1.82;66.56;93393.16;2048253;70;20153;-79
2024/01/11 09:45:13;;;;;;;22.20;11.93;;;;;;;1.68;65.76;93400.78;2048359;70;20131;-79
2024/01/11 09:47:39;;;;;;;16.33;9.38;;;;;;;2.06;65.19;93394.16;2048392;70;20143;-80
2024/01/11 09:50:06;;;;;;;17.00;9.52;;;;;;;2.29;65.06;93393.16;2048376;70;20139;-79
2024/01/11 09:52:32;;;;;;;15.60;9.15;;;;;;;2.94;66.02;93393.34;2047715;70;20225;-79
2024/01/11 09:55:02;;;;;;;18.90;9.73;;;;;;;3.33;63.56;93391.56;2048398;70;20238;-79
2024/01/11 09:57:34;;;;;;;16.20;8.52;;;;;;;2.92;63.48;93393.13;2048287;70;21994;-79
2024/01/11 10:00:07;;;;;;;20.10;9.77;;;;;;;3.20;61.65;93392.41;2048316;70;20243;-79
2024/01/11 10:02:33;;;;;;;17.38;10.10;;;;;;;3.86;62.03;93393.16;2048436;70;20277;-78
2024/01/11 10:04:59;;;;;;;17.50;10.15;;;;;;;4.19;61.01;93394.22;2048386;70;20499;-79
2024/01/11 10:07:28;;;;;;;12.85;7.32;;;;;;;4.52;60.50;93384.06;2048335;70;20162;-82
2024/01/11 10:09:54;;;;;;;14.73;6.93;;;;;;;4.75;59.66;93386.88;2048286;70;20182;-78
2024/01/11 10:12:24;;;;;;;12.45;6.75;;;;;;;5.06;58.60;93396.00;2048205;70;20186;-78
2024/01/11 10:14:51;;;;;;;10.77;6.13;;;;;;;5.67;58.99;93412.69;2048362;70;20197;-79
2024/01/11 10:17:18;;;;;;;10.95;6.28;;;;;;;4.75;56.67;93409.94;2048311;70;20143;-76
2024/01/11 10:19:44;;;;;;;13.68;7.93;;;;;;;5.18;58.34;93408.28;2048425;70;20225;-78
2024/01/11 10:22:16;;;;;;;13.80;7.07;;;;;;;5.38;56.34;93419.81;2048280;70;20182;-77
2024/01/11 10:24:42;;;;;;;11.68;7.03;;;;;;;5.91;56.30;93410.56;2048432;70;20179;-78
2024/01/11 10:27:09;;;;;;;11.27;7.70;;;;;;;4.99;55.52;93405.09;2048456;70;20590;-79
2024/01/11 10:29:38;;;;;;;12.93;7.85;;;;;;;4.71;57.25;93398.41;2048285;70;20150;-80
2024/01/11 10:32:04;;;;;;;12.52;6.90;;;;;;;5.87;55.68;93388.63;2048196;70;20198;-80
2024/01/11 10:34:30;;;;;;;9.85;6.40;;;;;;;7.23;55.31;93390.47;2048303;70;20526;-80
2024/01/11 10:36:56;;;;;;;12.05;7.05;;;;;;;8.10;52.61;93385.69;2048304;70;20134;-78
2024/01/11 10:39:26;;;;;;;10.48;6.68;;;;;;;8.22;51.59;93374.72;2048300;70;20146;-80
2024/01/11 10:42:04;;;;;;;10.45;6.03;;;;;;;8.69;49.61;93370.75;2048126;70;20506;-78
2024/01/11 10:44:33;;;;;;;9.77;5.80;;;;;;;9.88;48.14;93372.72;2047890;70;20222;-79
2024/01/11 10:47:02;;;;;;;8.52;4.95;;;;;;;9.86;47.09;93366.97;2048438;70;20145;-80
2024/01/11 10:49:30;;;;;;;11.05;6.90;;;;;;;8.80;48.18;93356.19;2048251;70;20178;-81
2024/01/11 10:52:00;;;;;;;10.23;6.57;;;;;;;10.30;44.81;93362.41;2048342;70;20221;-80
2024/01/11 10:54:27;;;;;;;8.43;5.63;;;;;;;11.01;44.29;93370.25;2048229;70;20150;-82
2024/01/11 10:56:54;;;;;;;9.00;5.15;;;;;;;10.24;44.16;93376.00;2047768;70;20162;-80
2024/01/11 10:59:25;;;;;;;8.68;5.47;;;;;;;10.42;46.02;93371.72;2048177;70;20161;-83
2024/01/11 11:01:54;;;;;;;6.72;4.57;;;;;;;11.18;44.29;93378.50;2047749;70;20160;-84
2024/01/11 11:04:23;;;;;;;6.47;4.32;;;;;;;12.85;43.25;93365.47;2047742;70;20143;-80
2024/01/11 11:06:57;;;;;;;6.05;4.25;;;;;;;13.87;39.70;93360.34;2048262;70;20150;-78
2024/01/11 11:09:24;;;;;;;5.80;3.90;;;;;;;15.02;40.06;93347.75;2048358;70;20159;-79
2024/01/11 11:11:51;;;;;;;6.47;4.47;;;;;;;14.22;40.04;93358.19;2048134;70;20174;-82
2024/01/11 11:14:18;;;;;;;6.00;4.70;;;;;;;14.23;38.00;93358.91;2048229;70;20176;-81
2024/01/11 11:16:44;;;;;;;7.18;4.80;;;;;;;13.12;39.48;93353.72;2048432;70;20176;-84
2024/01/11 11:19:12;;;;;;;7.20;5.10;;;;;;;16.14;37.48;93354.41;2048343;70;20151;-81
2024/01/11 11:21:48;;;;;;;6.45;4.40;;;;;;;16.65;36.90;93362.59;2048224;70;20210;-81
2024/01/11 11:24:16;;;;;;;5.57;3.90;;;;;;;18.19;34.97;93368.28;2048170;70;20150;-80
2024/01/11 11:26:42;;;;;;;6.80;4.55;;;;;;;19.28;33.87;93368.47;2048091;70;20647;-80